createdAt,value
2023-03-10T00:01:12.098Z,57.96
2023-03-10T00:03:40.372Z,58.09
2023-03-10T00:06:09.386Z,58.11
2023-03-10T00:08:37.335Z,58.14
2023-03-10T00:11:05.447Z,58.44
2023-03-10T00:13:33.408Z,58.67
2023-03-10T00:16:02.926Z,58.59
2023-03-10T00:18:32.622Z,58.87
2023-03-10T00:21:01.227Z,59.10
2023-03-10T00:23:29.421Z,59.34
2023-03-10T00:25:58.620Z,59.21
2023-03-10T00:28:27.755Z,59.47
2023-03-10T00:31:00.747Z,60.01
2023-03-10T00:33:31.330Z,59.66
2023-03-10T00:36:04.674Z,60.03
2023-03-10T00:38:32.998Z,59.95
2023-03-10T00:41:01.863Z,59.85
2023-03-10T00:43:30.647Z,60.01
2023-03-10T00:45:58.868Z,59.94
2023-03-10T00:48:27.229Z,59.87
2023-03-10T00:50:59.080Z,59.85
2023-03-10T00:53:27.619Z,59.59
2023-03-10T00:56:01.068Z,59.63
2023-03-10T00:58:29.867Z,59.58
2023-03-10T01:00:58.033Z,59.54
2023-03-10T01:03:27.834Z,59.74
2023-03-10T01:05:58.527Z,59.69
2023-03-10T01:08:26.745Z,59.61
2023-03-10T01:10:54.739Z,59.75
2023-03-10T01:13:22.935Z,59.54
2023-03-10T01:15:51.284Z,59.43
2023-03-10T01:18:20.786Z,59.73
2023-03-10T01:20:49.622Z,59.63
2023-03-10T01:23:21.957Z,60.05
2023-03-10T01:25:50.864Z,60.09
2023-03-10T01:28:19.696Z,59.91
2023-03-10T01:30:48.826Z,59.93
2023-03-10T01:33:18.591Z,59.53
2023-03-10T01:35:46.646Z,59.68
2023-03-10T01:38:15.364Z,59.67
2023-03-10T01:40:49.870Z,59.91
2023-03-10T01:43:35.334Z,59.39
2023-03-10T01:46:40.874Z,59.82
2023-03-10T01:49:15.662Z,59.68
2023-03-10T01:51:48.674Z,59.74
2023-03-10T01:54:20.106Z,59.70
2023-03-10T01:56:52.359Z,59.62
2023-03-10T01:59:21.895Z,59.60
2023-03-10T02:01:51.878Z,59.81
2023-03-10T02:04:24.564Z,59.95
2023-03-10T02:06:53.342Z,59.65
2023-03-10T02:09:22.716Z,59.81
2023-03-10T02:11:52.894Z,59.94
2023-03-10T02:14:21.323Z,59.94
2023-03-10T02:16:49.322Z,59.57
2023-03-10T02:19:30.837Z,59.83
2023-03-10T02:22:06.129Z,59.64
2023-03-10T02:24:43.072Z,59.69
2023-03-10T02:27:17.365Z,59.50
2023-03-10T02:29:59.406Z,59.45
2023-03-10T02:32:29.771Z,59.53
2023-03-10T02:34:57.811Z,59.47
2023-03-10T02:37:30.098Z,59.55
2023-03-10T02:39:58.934Z,59.50
2023-03-10T02:42:32.460Z,59.34
2023-03-10T02:45:00.874Z,59.30
2023-03-10T02:47:29.091Z,59.33
2023-03-10T02:49:56.999Z,59.16
2023-03-10T02:52:33.453Z,59.28
2023-03-10T02:55:01.438Z,59.14
2023-03-10T02:57:30.902Z,58.96
2023-03-10T02:59:58.913Z,58.92
2023-03-10T03:02:26.939Z,58.87
2023-03-10T03:04:54.915Z,58.85
2023-03-10T03:07:22.780Z,58.27
2023-03-10T03:09:50.724Z,58.43
2023-03-10T03:12:18.640Z,58.26
2023-03-10T03:14:48.907Z,58.99
2023-03-10T03:17:16.842Z,59.18
2023-03-10T03:19:44.888Z,58.87
2023-03-10T03:22:13.090Z,59.17
2023-03-10T03:24:41.343Z,59.23
2023-03-10T03:27:09.544Z,59.20
2023-03-10T03:29:37.473Z,59.22
2023-03-10T03:32:08.019Z,59.43
2023-03-10T03:34:35.981Z,59.52
2023-03-10T03:37:04.045Z,58.82
2023-03-10T03:39:32.265Z,58.16
2023-03-10T03:42:00.175Z,57.29
2023-03-10T03:44:28.393Z,57.21
2023-03-10T03:46:56.389Z,56.83
2023-03-10T03:49:25.713Z,56.73
2023-03-10T03:51:54.019Z,57.17
2023-03-10T03:54:21.916Z,56.73
2023-03-10T03:56:49.852Z,55.90
2023-03-10T03:59:17.996Z,55.79
2023-03-10T04:01:46.169Z,55.27
2023-03-10T04:04:14.198Z,55.42
2023-03-10T04:06:43.640Z,55.38
2023-03-10T04:09:13.725Z,55.41
2023-03-10T04:11:41.552Z,54.95
2023-03-10T04:14:09.498Z,54.77
2023-03-10T04:16:37.380Z,54.67
2023-03-10T04:19:07.680Z,54.59
2023-03-10T04:21:36.048Z,54.95
2023-03-10T04:24:06.547Z,54.57
2023-03-10T04:26:34.602Z,54.47
2023-03-10T04:29:02.566Z,54.65
2023-03-10T04:31:30.613Z,54.70
2023-03-10T04:33:58.547Z,54.62
2023-03-10T04:36:26.470Z,54.88
2023-03-10T04:38:54.649Z,54.94
2023-03-10T04:41:24.003Z,54.76
2023-03-10T04:43:51.998Z,54.65
2023-03-10T04:46:20.016Z,54.70
2023-03-10T04:48:47.905Z,54.47
2023-03-10T04:51:15.890Z,54.23
2023-03-10T04:53:43.825Z,54.07
2023-03-10T04:56:12.796Z,54.04
2023-03-10T04:58:42.380Z,53.91
2023-03-10T05:01:12.817Z,54.15
2023-03-10T05:03:41.036Z,54.42
2023-03-10T05:06:13.377Z,54.47
2023-03-10T05:08:41.569Z,54.03
2023-03-10T05:11:10.431Z,53.77
2023-03-10T05:13:38.402Z,53.47
2023-03-10T05:16:13.896Z,52.91
2023-03-10T05:18:41.912Z,51.66
2023-03-10T05:21:10.002Z,51.61
2023-03-10T05:23:38.605Z,51.41
2023-03-10T05:26:07.375Z,51.25
2023-03-10T05:28:35.675Z,51.01
2023-03-10T05:31:11.773Z,50.84
2023-03-10T05:33:39.714Z,50.47
2023-03-10T05:36:09.172Z,50.52
2023-03-10T05:38:37.635Z,50.99
2023-03-10T05:41:09.076Z,51.17
2023-03-10T05:43:38.413Z,51.80
2023-03-10T05:46:07.096Z,51.87
2023-03-10T05:48:36.958Z,51.58
2023-03-10T05:51:07.521Z,51.92
2023-03-10T05:53:37.733Z,51.85
2023-03-10T05:56:10.581Z,51.85
2023-03-10T05:58:39.176Z,51.72
2023-03-10T06:01:07.904Z,51.96
2023-03-10T06:03:38.677Z,51.84
2023-03-10T06:06:07.868Z,51.95
2023-03-10T06:08:37.117Z,52.20
2023-03-10T06:11:06.286Z,52.46
2023-03-10T06:13:34.258Z,52.77
2023-03-10T06:16:04.905Z,52.76
2023-03-10T06:18:34.059Z,52.88
2023-03-10T06:21:06.609Z,53.47
2023-03-10T06:23:34.422Z,54.46
2023-03-10T06:26:06.141Z,55.21
2023-03-10T06:28:36.723Z,55.63
2023-03-10T06:31:08.241Z,55.67
2023-03-10T06:33:37.030Z,55.56
2023-03-10T06:36:08.085Z,55.75
2023-03-10T06:38:36.011Z,55.62
2023-03-10T06:41:04.287Z,55.66
2023-03-10T06:43:32.924Z,55.98
2023-03-10T06:46:01.337Z,55.44
2023-03-10T06:48:29.245Z,55.56
2023-03-10T06:50:57.294Z,55.46
2023-03-10T06:53:28.274Z,55.64
2023-03-10T06:56:00.291Z,55.42
2023-03-10T06:58:28.519Z,55.27
2023-03-10T07:00:57.064Z,55.03
2023-03-10T07:03:26.343Z,55.02
2023-03-10T07:05:54.296Z,55.00
2023-03-10T07:08:22.736Z,55.31
2023-03-10T07:10:52.161Z,54.95
2023-03-10T07:13:22.053Z,54.35
2023-03-10T07:15:50.752Z,54.47
2023-03-10T07:18:18.856Z,54.36
2023-03-10T07:20:47.932Z,54.55
2023-03-10T07:23:16.521Z,54.36
2023-03-10T07:25:44.364Z,54.61
2023-03-10T07:28:13.815Z,54.29
2023-03-10T07:30:42.096Z,54.28
2023-03-10T07:33:10.433Z,54.45
2023-03-10T07:35:39.306Z,54.29
2023-03-10T07:38:07.348Z,53.95
2023-03-10T07:40:35.534Z,53.99
2023-03-10T07:43:03.497Z,53.71
2023-03-10T07:45:33.709Z,53.42
2023-03-10T07:48:01.706Z,53.34
2023-03-10T07:50:29.947Z,53.40
2023-03-10T07:52:57.863Z,53.39
2023-03-10T07:55:26.023Z,53.50
2023-03-10T07:57:57.008Z,52.89
2023-03-10T08:00:25.425Z,52.86
2023-03-10T08:02:54.801Z,52.52
2023-03-10T08:05:23.024Z,51.99
2023-03-10T08:07:51.082Z,52.29
2023-03-10T08:10:20.743Z,52.35
2023-03-10T08:12:48.688Z,52.24
2023-03-10T08:15:17.087Z,51.93
2023-03-10T08:17:45.247Z,52.11
2023-03-10T08:20:15.739Z,52.11
2023-03-10T08:22:43.668Z,52.00
2023-03-10T08:25:12.821Z,51.73
2023-03-10T08:27:41.599Z,51.72
2023-03-10T08:30:10.940Z,51.71
2023-03-10T08:32:39.139Z,51.07
2023-03-10T08:35:08.883Z,51.35
2023-03-10T08:37:38.779Z,51.36
2023-03-10T08:40:08.280Z,50.50
2023-03-10T08:42:37.171Z,50.53
2023-03-10T08:45:08.518Z,50.28
2023-03-10T08:47:37.329Z,50.25
2023-03-10T08:50:07.044Z,50.30
2023-03-10T08:52:35.295Z,50.11
2023-03-10T08:55:05.684Z,50.46
2023-03-10T08:57:34.062Z,50.10
2023-03-10T09:00:02.029Z,49.83
2023-03-10T09:02:30.442Z,49.63
2023-03-10T09:04:58.359Z,49.64
2023-03-10T09:07:26.555Z,49.57
2023-03-10T09:09:54.473Z,49.50
2023-03-10T09:12:24.029Z,49.24
2023-03-10T09:14:52.212Z,48.87
2023-03-10T09:17:20.313Z,48.75
2023-03-10T09:19:49.020Z,48.91
2023-03-10T09:22:17.276Z,48.83
2023-03-10T09:24:45.470Z,48.72
2023-03-10T09:27:13.375Z,48.74
2023-03-10T09:29:43.775Z,48.57
2023-03-10T09:32:12.351Z,48.73
2023-03-10T09:34:40.648Z,48.37
2023-03-10T09:37:09.226Z,48.69
2023-03-10T09:39:37.159Z,49.00
2023-03-10T09:42:38.333Z,49.18
2023-03-10T09:45:19.576Z,48.96
2023-03-10T09:47:56.841Z,48.93
2023-03-10T09:50:31.391Z,48.78
2023-03-10T09:53:04.299Z,48.47
2023-03-10T09:55:42.458Z,48.77
2023-03-10T09:58:21.898Z,48.43
2023-03-10T10:00:52.833Z,48.01
2023-03-10T10:03:23.257Z,48.15
2023-03-10T10:05:55.549Z,47.70
2023-03-10T10:08:28.834Z,47.70
2023-03-10T10:10:59.157Z,47.90
2023-03-10T10:13:30.710Z,47.50
2023-03-10T10:16:24.378Z,47.27
2023-03-10T10:19:04.351Z,47.56
2023-03-10T10:21:42.708Z,47.33
2023-03-10T10:24:11.493Z,47.00
2023-03-10T10:26:39.309Z,46.67
2023-03-10T10:29:17.117Z,46.44
2023-03-10T10:32:18.210Z,46.42
2023-03-10T10:34:48.751Z,46.26
2023-03-10T10:37:28.236Z,46.09
2023-03-10T10:39:59.028Z,45.86
2023-03-10T10:42:30.350Z,46.12
2023-03-10T10:45:00.201Z,45.80
2023-03-10T10:47:32.700Z,45.21
2023-03-10T10:50:19.928Z,45.07
2023-03-10T10:52:50.647Z,44.71
2023-03-10T10:55:34.511Z,44.96
2023-03-10T10:58:04.254Z,45.23
2023-03-10T11:00:34.611Z,44.75
2023-03-10T11:03:20.574Z,44.45
2023-03-10T11:05:48.791Z,44.28
2023-03-10T11:08:30.710Z,44.17
2023-03-10T11:11:04.439Z,44.24
2023-03-10T11:13:43.183Z,44.13
2023-03-10T11:19:23.172Z,44.63
2023-03-10T11:21:55.919Z,44.10
2023-03-10T11:24:33.184Z,43.07
2023-03-10T11:27:05.727Z,43.54
2023-03-10T11:29:49.215Z,43.95
2023-03-10T11:32:26.710Z,43.44
2023-03-10T11:34:56.571Z,43.40
2023-03-10T11:37:33.406Z,43.46
2023-03-10T11:40:16.359Z,43.61
2023-03-10T11:42:52.571Z,43.37
2023-03-10T11:45:28.326Z,43.18
2023-03-10T11:48:07.892Z,42.93
2023-03-10T11:50:46.536Z,43.34
2023-03-10T11:53:20.080Z,43.36
2023-03-10T11:55:50.794Z,42.08
2023-03-10T11:58:27.111Z,42.29
2023-03-10T12:00:55.823Z,42.17
2023-03-10T12:03:40.219Z,42.15
2023-03-10T12:06:15.275Z,42.02
2023-03-10T12:08:44.125Z,41.60
2023-03-10T12:11:17.961Z,41.85
2023-03-10T12:13:48.336Z,42.21
2023-03-10T12:19:32.137Z,42.16
2023-03-10T12:22:26.505Z,42.36
2023-03-10T12:24:54.433Z,42.20
2023-03-10T12:27:22.288Z,42.45
2023-03-10T12:29:50.226Z,42.43
2023-03-10T12:32:41.916Z,41.54
2023-03-10T12:35:46.278Z,41.53
2023-03-10T12:38:37.269Z,41.38
2023-03-10T12:41:05.860Z,40.88
2023-03-10T12:44:01.616Z,41.06
2023-03-10T12:46:41.561Z,41.06
2023-03-10T12:49:30.038Z,40.71
2023-03-10T12:52:14.078Z,40.99
2023-03-10T12:54:53.590Z,40.48
2023-03-10T12:57:29.939Z,40.40
2023-03-10T13:00:03.007Z,40.06
2023-03-10T13:02:37.440Z,39.89
2023-03-10T13:05:08.584Z,39.02
2023-03-10T13:07:36.844Z,39.51
2023-03-10T13:10:08.141Z,39.36
2023-03-10T13:12:48.172Z,39.97
2023-03-10T13:15:24.906Z,40.15
2023-03-10T13:17:55.253Z,39.74
2023-03-10T13:20:24.079Z,38.97
2023-03-10T13:22:56.451Z,39.23
2023-03-10T13:25:27.717Z,39.06
2023-03-10T13:27:57.466Z,38.81
2023-03-10T13:30:27.914Z,38.76
2023-03-10T13:32:57.489Z,38.08
2023-03-10T13:35:31.265Z,38.25
2023-03-10T13:38:12.300Z,38.55
2023-03-10T13:40:45.125Z,38.24
2023-03-10T13:43:36.674Z,38.75
2023-03-10T13:46:09.691Z,38.76
2023-03-10T13:48:38.685Z,38.39
2023-03-10T13:51:20.322Z,38.64
2023-03-10T13:53:52.614Z,38.31
2023-03-10T13:56:24.816Z,38.65
2023-03-10T13:58:56.164Z,38.98
2023-03-10T14:01:26.048Z,39.26
2023-03-10T14:03:57.708Z,39.31
2023-03-10T14:06:27.048Z,39.21
2023-03-10T14:08:55.526Z,39.46
2023-03-10T14:11:33.245Z,39.17
2023-03-10T14:14:01.906Z,39.02
2023-03-10T14:16:50.849Z,38.38
2023-03-10T14:19:48.253Z,38.46
2023-03-10T14:22:38.126Z,38.35
2023-03-10T14:25:17.196Z,38.27
2023-03-10T14:27:48.814Z,38.19
2023-03-10T14:30:21.923Z,37.85
2023-03-10T14:32:53.781Z,37.74
2023-03-10T14:35:23.813Z,37.63
2023-03-10T14:37:53.274Z,37.82
2023-03-10T14:40:23.646Z,38.00
2023-03-10T14:42:55.663Z,38.04
2023-03-10T14:45:30.697Z,37.89
2023-03-10T14:48:00.346Z,37.47
2023-03-10T14:50:29.900Z,37.50
2023-03-10T14:52:57.809Z,37.25
2023-03-10T14:55:26.061Z,37.79
2023-03-10T14:58:00.081Z,37.64
2023-03-10T15:00:28.442Z,36.60
2023-03-10T15:02:56.372Z,36.96
2023-03-10T15:05:34.598Z,37.12
2023-03-10T15:08:05.325Z,36.58
2023-03-10T15:10:37.198Z,36.78
2023-03-10T15:13:06.495Z,36.66
2023-03-10T15:15:39.617Z,36.91
2023-03-10T15:18:08.313Z,36.79
2023-03-10T15:20:36.362Z,36.90
2023-03-10T15:23:04.337Z,37.04
2023-03-10T15:25:32.305Z,37.36
2023-03-10T15:28:00.299Z,37.69
2023-03-10T15:30:32.179Z,37.68
2023-03-10T15:33:00.316Z,37.66
2023-03-10T15:35:29.282Z,37.86
2023-03-10T15:37:58.184Z,37.87
2023-03-10T15:40:29.121Z,37.88
2023-03-10T15:42:57.892Z,37.91
2023-03-10T15:45:26.427Z,38.27
2023-03-10T15:47:55.987Z,38.40
2023-03-10T15:50:24.349Z,38.40
2023-03-10T15:52:54.369Z,38.13
2023-03-10T15:55:23.416Z,37.99
2023-03-10T15:57:51.686Z,37.76
2023-03-10T16:00:21.713Z,37.75
2023-03-10T16:02:51.220Z,37.54
2023-03-10T16:05:21.199Z,37.53
2023-03-10T16:07:49.109Z,37.54
2023-03-10T16:10:19.084Z,37.17
2023-03-10T16:12:47.298Z,37.57
2023-03-10T16:15:18.091Z,37.66
2023-03-10T16:17:46.672Z,37.54
2023-03-10T16:20:17.053Z,37.70
2023-03-10T16:22:46.735Z,37.65
2023-03-10T16:25:16.325Z,37.85
2023-03-10T16:27:44.673Z,37.98
2023-03-10T16:30:15.042Z,38.00
2023-03-10T16:32:45.610Z,38.12
2023-03-10T16:35:13.779Z,38.12
2023-03-10T16:37:42.119Z,38.27
2023-03-10T16:40:13.653Z,38.26
2023-03-10T16:42:45.543Z,38.30
2023-03-10T16:45:13.791Z,38.84
2023-03-10T16:47:43.941Z,38.43
2023-03-10T16:50:14.345Z,38.68
2023-03-10T16:52:43.104Z,38.80
2023-03-10T16:55:17.420Z,38.92
2023-03-10T16:57:46.560Z,38.64
2023-03-10T17:00:15.904Z,38.95
2023-03-10T17:02:43.771Z,38.97
2023-03-10T17:05:13.819Z,38.98
2023-03-10T17:07:54.693Z,39.10
2023-03-10T17:10:26.913Z,39.03
2023-03-10T17:12:55.030Z,38.92
2023-03-10T17:15:22.885Z,39.02
2023-03-10T17:17:50.888Z,39.28
2023-03-10T17:20:20.356Z,39.32
2023-03-10T17:22:48.363Z,39.00
2023-03-10T17:25:16.245Z,39.33
2023-03-10T17:27:45.805Z,39.31
2023-03-10T17:30:15.554Z,39.47
2023-03-10T17:32:43.559Z,39.67
2023-03-10T17:35:11.912Z,39.48
2023-03-10T17:37:41.049Z,39.39
2023-03-10T17:40:10.555Z,39.32
2023-03-10T17:42:38.388Z,39.74
2023-03-10T17:45:09.366Z,39.89
2023-03-10T17:47:37.579Z,40.15
2023-03-10T17:50:07.419Z,39.82
2023-03-10T17:52:35.274Z,39.81
2023-03-10T17:55:03.151Z,40.10
2023-03-10T17:57:31.053Z,40.25
2023-03-10T17:59:59.212Z,40.22
2023-03-10T18:02:28.689Z,40.19
2023-03-10T18:04:56.928Z,40.39
2023-03-10T18:07:25.025Z,40.66
2023-03-10T18:09:53.819Z,40.52
2023-03-10T18:12:21.724Z,40.79
2023-03-10T18:14:49.547Z,40.98
2023-03-10T18:17:17.463Z,40.86
2023-03-10T18:19:46.765Z,40.92
2023-03-10T18:22:14.710Z,41.10
2023-03-10T18:24:42.689Z,41.26
2023-03-10T18:27:10.688Z,41.27
2023-03-10T18:29:38.823Z,41.20
2023-03-10T18:32:07.108Z,41.22
2023-03-10T18:34:35.135Z,41.54
2023-03-10T18:37:04.567Z,41.42
2023-03-10T18:39:32.444Z,41.36
2023-03-10T18:42:02.989Z,41.58
2023-03-10T18:44:31.041Z,41.56
2023-03-10T18:46:59.021Z,41.96
2023-03-10T18:49:26.955Z,41.72
2023-03-10T18:51:54.877Z,41.93
2023-03-10T18:54:24.226Z,41.92
2023-03-10T18:56:52.119Z,42.30
2023-03-10T18:59:20.244Z,42.46
2023-03-10T19:01:48.230Z,42.38
2023-03-10T19:04:16.179Z,42.59
2023-03-10T19:06:44.102Z,42.89
2023-03-10T19:09:12.976Z,42.94
2023-03-10T19:11:42.469Z,42.82
2023-03-10T19:14:10.431Z,42.90
2023-03-10T19:16:39.876Z,43.21
2023-03-10T19:19:08.289Z,43.33
2023-03-10T19:21:36.444Z,43.29
2023-03-10T19:24:04.643Z,43.32
2023-03-10T19:26:33.470Z,43.35
2023-03-10T19:29:03.103Z,43.26
2023-03-10T19:31:31.189Z,43.52
2023-03-10T19:34:00.529Z,43.28
2023-03-10T19:36:29.763Z,43.37
2023-03-10T19:38:57.623Z,43.37
2023-03-10T19:41:25.615Z,43.30
2023-03-10T19:43:54.711Z,43.64
2023-03-10T19:46:24.108Z,43.32
2023-03-10T19:48:52.060Z,43.54
2023-03-10T19:51:21.972Z,43.73
2023-03-10T19:53:51.503Z,43.47
2023-03-10T19:56:23.145Z,43.46
2023-03-10T19:58:51.758Z,43.68
2023-03-10T20:01:25.453Z,43.64
2023-03-10T20:03:54.772Z,43.48
2023-03-10T20:06:22.855Z,43.51
2023-03-10T20:08:51.608Z,43.58
2023-03-10T20:11:19.926Z,43.28
2023-03-10T20:13:48.964Z,43.36
2023-03-10T20:16:18.595Z,43.28
2023-03-10T20:18:47.975Z,43.65
2023-03-10T20:21:16.967Z,43.54
2023-03-10T20:23:47.736Z,43.41
2023-03-10T20:26:16.781Z,43.63
2023-03-10T20:28:45.541Z,43.48
2023-03-10T20:31:17.259Z,43.92
2023-03-10T20:33:45.552Z,43.46
2023-03-10T20:36:16.081Z,43.52
2023-03-10T20:38:45.417Z,43.61
2023-03-10T20:41:13.803Z,43.82
2023-03-10T20:43:41.946Z,43.67
2023-03-10T20:46:10.706Z,43.88
2023-03-10T20:48:39.144Z,43.62
2023-03-10T20:51:07.373Z,43.82
2023-03-10T20:53:37.449Z,43.75
2023-03-10T20:56:11.393Z,43.73
2023-03-10T20:58:40.064Z,43.79
2023-03-10T21:01:08.080Z,43.99
2023-03-10T21:03:36.243Z,43.66
2023-03-10T21:06:04.492Z,43.83
2023-03-10T21:08:32.428Z,43.67
2023-03-10T21:11:02.204Z,43.70
2023-03-10T21:13:30.871Z,43.77
2023-03-10T21:16:00.147Z,43.86
2023-03-10T21:18:28.245Z,43.86
2023-03-10T21:20:56.326Z,43.96
2023-03-10T21:23:24.408Z,44.14
2023-03-10T21:25:52.434Z,44.00
2023-03-10T21:28:24.017Z,43.99
2023-03-10T21:30:51.873Z,43.96
2023-03-10T21:33:23.016Z,44.13
2023-03-10T21:35:51.423Z,44.04
2023-03-10T21:38:21.551Z,44.20
2023-03-10T21:40:51.552Z,44.09
2023-03-10T21:43:19.797Z,44.13
2023-03-10T21:45:49.343Z,44.25
2023-03-10T21:48:17.863Z,44.37
2023-03-10T21:50:45.780Z,44.02
2023-03-10T21:53:14.127Z,44.21
2023-03-10T21:55:43.125Z,44.25
2023-03-10T21:58:11.177Z,44.38
2023-03-10T22:00:43.479Z,44.24
2023-03-10T22:03:12.921Z,44.26
2023-03-10T22:05:40.957Z,44.08
2023-03-10T22:08:08.888Z,44.11
2023-03-10T22:10:36.995Z,44.09
2023-03-10T22:13:05.004Z,44.05
2023-03-10T22:15:33.112Z,44.21
2023-03-10T22:18:01.173Z,44.08
2023-03-10T22:20:30.696Z,44.17
2023-03-10T22:22:58.787Z,44.24
2023-03-10T22:25:27.817Z,44.03
2023-03-10T22:27:57.769Z,43.90
2023-03-10T22:30:27.111Z,44.18
2023-03-10T22:32:55.748Z,44.00
2023-03-10T22:35:23.830Z,44.23
2023-03-10T22:37:53.559Z,44.09
2023-03-10T22:40:25.405Z,44.21
2023-03-10T22:42:54.175Z,43.88
2023-03-10T22:45:23.842Z,44.04
2023-03-10T22:47:54.939Z,43.96
2023-03-10T22:50:26.016Z,44.12
2023-03-10T22:52:55.469Z,44.01
2023-03-10T22:55:26.015Z,43.90
2023-03-10T22:57:56.534Z,44.31
2023-03-10T23:00:25.084Z,43.98
2023-03-10T23:02:53.968Z,43.78
2023-03-10T23:05:22.517Z,44.00
2023-03-10T23:07:51.013Z,43.89
2023-03-10T23:10:22.723Z,43.70
2023-03-10T23:12:51.848Z,44.06
2023-03-10T23:15:25.289Z,43.77
2023-03-10T23:17:54.484Z,44.01
2023-03-10T23:20:24.312Z,44.23
2023-03-10T23:22:52.533Z,44.03
2023-03-10T23:25:24.910Z,43.98
2023-03-10T23:27:53.471Z,44.01
2023-03-10T23:30:23.984Z,44.00
2023-03-10T23:32:52.274Z,44.21
2023-03-10T23:35:22.958Z,44.17
2023-03-10T23:37:50.909Z,44.22
2023-03-10T23:40:23.173Z,44.23
2023-03-10T23:42:51.267Z,44.06
2023-03-10T23:45:22.267Z,44.01
2023-03-10T23:47:51.141Z,44.25
2023-03-10T23:50:21.315Z,44.19
2023-03-10T23:52:49.823Z,43.94
2023-03-10T23:55:19.876Z,44.23
2023-03-10T23:57:49.566Z,44.15
